KEKO

Elko Regional Airport

Elko, Nevada, USA
KEKO 182320Z 1900/1924 22007KT P6SM VCSH SCT030 BKN100 OVC200 TEMPO 1902/1906 6SM -RASN BKN020 FM190600 VRB04KT 4SM -SN BR SCT007 BKN015 TEMPO 1912/1916 2SM -SN BR BKN005 FM192200 VRB05KT 6SM BR VCSH SCT010 OVC025
Issued Valid From Valid To
Jan-18 @ 23:20 UTC
(3 hours ago)
Jan-19 @ 00:00 UTC
(2 hours ago)
Jan-20 @ 00:00 UTC
(in 22 hours)
Jan-19 @ 00:00 to Jan-19 @ 06:00
KEKO 182320Z 1900/1924 22007KT P6SM VCSH SCT030 BKN100 OVC200
Wind Visibility Clouds
220° at 7 knots Greater than 6 miles
  • Scattered at 3,000' AGL
  • Broken at 10,000' AGL
  • Overcast at 20,000' AGL
Temporary Jan-19 @ 02:00 to Jan-19 @ 06:00
TEMPO 1902/1906 6SM -RASN BKN020
Visibility Clouds Conditions
6 miles
  • Broken at 2,000' AGL
  • Light Rain
  • Light Snow
From Jan-19 @ 06:00 to Jan-19 @ 22:00
FM190600 VRB04KT 4SM -SN BR SCT007 BKN015
Wind Visibility Clouds Conditions
Variable at 4 knots 4 miles
  • Scattered at 700' AGL
  • Broken at 1,500' AGL
  • Light Snow
  • Mist
Temporary Jan-19 @ 12:00 to Jan-19 @ 16:00
TEMPO 1912/1916 2SM -SN BR BKN005
Visibility Clouds Conditions
2 miles
  • Broken at 500' AGL
  • Light Snow
  • Mist
From Jan-19 @ 22:00 to Jan-20 @ 00:00
FM192200 VRB05KT 6SM BR VCSH SCT010 OVC025
Wind Visibility Clouds Conditions
Variable at 5 knots 6 miles
  • Scattered at 1,000' AGL
  • Overcast at 2,500' AGL
  • Mist
KEKO 182320Z 1900/1924 22007KT P6SM VCSH SCT030 BKN100 OVC200 TEMPO 1902/1906 6SM -RASN BKN020 FM190600 VRB04KT 4SM -SN BR SCT007 BKN015 TEMPO 1912/1916 2SM -SN BR BKN005 FM192200 VRB05KT 6SM BR VCSH SCT010 OVC025
Issued Jan-18 @ 23:20 UTC
(3 hours ago)
Valid From Jan-19 @ 00:00 UTC
(2 hours ago)
Valid To Jan-20 @ 00:00 UTC
(in 22 hours)
Jan-19 @ 00:00 - Jan-19 @ 06:00
Wind Visibility
220° at 7 knots Greater than 6 miles
Clouds
  • Scattered at 3,000' AGL
  • Broken at 10,000' AGL
  • Overcast at 20,000' AGL
Temporary Jan-19 @ 02:00 - Jan-19 @ 06:00
Clouds
  • Broken at 2,000' AGL
Conditions
  • Light Rain
  • Light Snow
From Jan-19 @ 06:00 - Jan-19 @ 22:00
Wind Visibility
Variable at 4 knots 4 miles
Clouds
  • Scattered at 700' AGL
  • Broken at 1,500' AGL
Conditions
  • Light Snow
  • Mist
Temporary Jan-19 @ 12:00 - Jan-19 @ 16:00
Clouds
  • Broken at 500' AGL
Conditions
  • Light Snow
  • Mist
From Jan-19 @ 22:00 - Jan-20 @ 00:00
Wind Visibility
Variable at 5 knots 6 miles
Clouds
  • Scattered at 1,000' AGL
  • Overcast at 2,500' AGL
Conditions
  • Mist